sensor_id;sensor_type;location;lat;lon;timestamp;P1;durP1;ratioP1;P2;durP2;ratioP2
39404;SDS011;25121;51.090;17.038;2023-04-09T00:01:35;59.38;;;34.38;;
39404;SDS011;25121;51.090;17.038;2023-04-09T00:05:30;60.75;;;35.00;;
39404;SDS011;25121;51.090;17.038;2023-04-09T00:18:00;57.75;;;35.08;;
39404;SDS011;25121;51.090;17.038;2023-04-09T00:25:43;60.47;;;34.83;;
39404;SDS011;25121;51.090;17.038;2023-04-09T00:28:36;56.95;;;33.97;;
39404;SDS011;25121;51.090;17.038;2023-04-09T00:30:29;54.25;;;33.55;;
39404;SDS011;25121;51.090;17.038;2023-04-09T00:44:39;59.80;;;37.22;;
39404;SDS011;25121;51.090;17.038;2023-04-09T00:59:03;59.72;;;34.70;;
39404;SDS011;25121;51.090;17.038;2023-04-09T01:38:49;57.33;;;35.30;;
39404;SDS011;25121;51.090;17.038;2023-04-09T02:47:40;68.82;;;40.35;;
39404;SDS011;25121;51.090;17.038;2023-04-09T02:49:05;69.22;;;40.70;;
39404;SDS011;25121;51.090;17.038;2023-04-09T02:50:31;71.82;;;42.45;;
39404;SDS011;25121;51.090;17.038;2023-04-09T02:51:56;68.25;;;41.38;;
39404;SDS011;25121;51.090;17.038;2023-04-09T02:53:23;70.35;;;41.08;;
39404;SDS011;25121;51.090;17.038;2023-04-09T02:54:45;68.70;;;41.53;;
39404;SDS011;25121;51.090;17.038;2023-04-09T02:56:09;72.78;;;42.05;;
39404;SDS011;25121;51.090;17.038;2023-04-09T02:57:32;73.47;;;42.33;;
39404;SDS011;25121;51.090;17.038;2023-04-09T02:58:53;69.50;;;42.05;;
39404;SDS011;25121;51.090;17.038;2023-04-09T03:00:16;68.78;;;41.83;;
39404;SDS011;25121;51.090;17.038;2023-04-09T03:01:37;72.53;;;42.58;;
39404;SDS011;25121;51.090;17.038;2023-04-09T03:03:01;70.28;;;42.92;;
39404;SDS011;25121;51.090;17.038;2023-04-09T03:04:25;72.45;;;42.60;;
39404;SDS011;25121;51.090;17.038;2023-04-09T03:05:48;75.03;;;43.88;;
39404;SDS011;25121;51.090;17.038;2023-04-09T03:07:11;75.43;;;42.53;;
39404;SDS011;25121;51.090;17.038;2023-04-09T03:08:33;68.40;;;41.42;;
39404;SDS011;25121;51.090;17.038;2023-04-09T03:09:58;71.25;;;43.08;;
39404;SDS011;25121;51.090;17.038;2023-04-09T03:11:19;75.18;;;42.60;;
39404;SDS011;25121;51.090;17.038;2023-04-09T03:12:41;73.85;;;42.60;;
39404;SDS011;25121;51.090;17.038;2023-04-09T03:14:04;72.28;;;42.80;;
39404;SDS011;25121;51.090;17.038;2023-04-09T03:15:26;72.57;;;43.63;;
39404;SDS011;25121;51.090;17.038;2023-04-09T03:16:47;70.55;;;43.78;;
39404;SDS011;25121;51.090;17.038;2023-04-09T03:18:12;74.53;;;43.85;;
39404;SDS011;25121;51.090;17.038;2023-04-09T03:19:35;71.90;;;42.30;;
39404;SDS011;25121;51.090;17.038;2023-04-09T03:29:56;69.80;;;39.40;;
39404;SDS011;25121;51.090;17.038;2023-04-09T03:31:30;76.30;;;43.85;;
39404;SDS011;25121;51.090;17.038;2023-04-09T03:32:52;71.63;;;42.42;;
39404;SDS011;25121;51.090;17.038;2023-04-09T04:05:54;76.07;;;42.70;;
39404;SDS011;25121;51.090;17.038;2023-04-09T04:16:15;77.97;;;44.13;;
39404;SDS011;25121;51.090;17.038;2023-04-09T04:17:44;79.25;;;46.70;;
39404;SDS011;25121;51.090;17.038;2023-04-09T04:19:29;76.28;;;43.50;;
39404;SDS011;25121;51.090;17.038;2023-04-09T04:20:54;75.32;;;44.83;;
39404;SDS011;25121;51.090;17.038;2023-04-09T04:22:25;77.15;;;44.05;;
39404;SDS011;25121;51.090;17.038;2023-04-09T04:23:54;74.50;;;46.03;;
39404;SDS011;25121;51.090;17.038;2023-04-09T04:25:22;71.25;;;43.05;;
39404;SDS011;25121;51.090;17.038;2023-04-09T04:26:49;75.85;;;44.67;;
39404;SDS011;25121;51.090;17.038;2023-04-09T04:28:13;79.00;;;46.17;;
39404;SDS011;25121;51.090;17.038;2023-04-09T04:29:35;77.78;;;46.88;;
39404;SDS011;25121;51.090;17.038;2023-04-09T04:31:13;83.18;;;47.03;;
39404;SDS011;25121;51.090;17.038;2023-04-09T04:32:36;83.03;;;47.85;;
39404;SDS011;25121;51.090;17.038;2023-04-09T04:34:01;72.78;;;45.38;;
39404;SDS011;25121;51.090;17.038;2023-04-09T04:35:24;80.07;;;46.50;;
39404;SDS011;25121;51.090;17.038;2023-04-09T04:36:52;83.53;;;47.47;;
39404;SDS011;25121;51.090;17.038;2023-04-09T04:38:25;76.07;;;45.45;;
39404;SDS011;25121;51.090;17.038;2023-04-09T04:39:48;80.05;;;46.15;;
39404;SDS011;25121;51.090;17.038;2023-04-09T04:41:18;82.25;;;46.97;;
39404;SDS011;25121;51.090;17.038;2023-04-09T04:42:50;81.07;;;49.08;;
39404;SDS011;25121;51.090;17.038;2023-04-09T04:44:14;80.07;;;48.28;;
39404;SDS011;25121;51.090;17.038;2023-04-09T04:45:39;75.63;;;45.90;;
39404;SDS011;25121;51.090;17.038;2023-04-09T04:47:04;76.78;;;46.05;;
39404;SDS011;25121;51.090;17.038;2023-04-09T04:48:27;77.80;;;45.90;;
39404;SDS011;25121;51.090;17.038;2023-04-09T04:49:51;83.32;;;48.67;;
39404;SDS011;25121;51.090;17.038;2023-04-09T04:51:14;79.85;;;48.65;;
39404;SDS011;25121;51.090;17.038;2023-04-09T04:52:59;81.53;;;49.33;;
39404;SDS011;25121;51.090;17.038;2023-04-09T04:54:27;83.80;;;48.15;;
39404;SDS011;25121;51.090;17.038;2023-04-09T04:56:11;80.43;;;48.47;;
39404;SDS011;25121;51.090;17.038;2023-04-09T04:57:49;83.93;;;48.75;;
39404;SDS011;25121;51.090;17.038;2023-04-09T04:59:16;86.82;;;51.72;;
39404;SDS011;25121;51.090;17.038;2023-04-09T05:00:50;91.10;;;54.00;;
39404;SDS011;25121;51.090;17.038;2023-04-09T05:02:15;106.97;;;59.25;;
39404;SDS011;25121;51.090;17.038;2023-04-09T05:04:01;85.88;;;51.95;;
39404;SDS011;25121;51.090;17.038;2023-04-09T05:05:26;81.70;;;49.78;;
39404;SDS011;25121;51.090;17.038;2023-04-09T05:06:50;86.00;;;51.00;;
39404;SDS011;25121;51.090;17.038;2023-04-09T05:08:16;75.50;;;47.42;;
39404;SDS011;25121;51.090;17.038;2023-04-09T05:09:42;77.53;;;47.17;;
39404;SDS011;25121;51.090;17.038;2023-04-09T05:11:05;80.45;;;48.78;;
39404;SDS011;25121;51.090;17.038;2023-04-09T05:12:31;78.68;;;47.25;;
39404;SDS011;25121;51.090;17.038;2023-04-09T05:14:04;74.97;;;46.40;;
39404;SDS011;25121;51.090;17.038;2023-04-09T05:15:26;80.45;;;46.35;;
39404;SDS011;25121;51.090;17.038;2023-04-09T05:18:16;79.72;;;44.50;;
39404;SDS011;25121;51.090;17.038;2023-04-09T05:19:38;82.28;;;46.65;;
39404;SDS011;25121;51.090;17.038;2023-04-09T05:21:08;77.63;;;47.25;;
39404;SDS011;25121;51.090;17.038;2023-04-09T05:22:34;78.33;;;46.47;;
39404;SDS011;25121;51.090;17.038;2023-04-09T05:24:01;74.25;;;45.63;;
39404;SDS011;25121;51.090;17.038;2023-04-09T05:25:27;82.00;;;48.72;;
39404;SDS011;25121;51.090;17.038;2023-04-09T05:26:53;83.20;;;47.00;;
39404;SDS011;25121;51.090;17.038;2023-04-09T05:28:16;77.43;;;46.28;;
39404;SDS011;25121;51.090;17.038;2023-04-09T05:29:42;80.72;;;48.50;;
39404;SDS011;25121;51.090;17.038;2023-04-09T05:31:05;75.95;;;46.45;;
39404;SDS011;25121;51.090;17.038;2023-04-09T05:32:39;76.70;;;47.88;;
39404;SDS011;25121;51.090;17.038;2023-04-09T05:34:01;78.97;;;49.35;;
39404;SDS011;25121;51.090;17.038;2023-04-09T05:35:31;78.00;;;47.30;;
39404;SDS011;25121;51.090;17.038;2023-04-09T05:36:55;78.43;;;49.50;;
39404;SDS011;25121;51.090;17.038;2023-04-09T05:38:20;82.45;;;48.63;;
39404;SDS011;25121;51.090;17.038;2023-04-09T05:42:57;79.97;;;47.50;;
39404;SDS011;25121;51.090;17.038;2023-04-09T05:44:41;73.60;;;45.50;;
39404;SDS011;25121;51.090;17.038;2023-04-09T05:46:11;77.60;;;46.65;;
39404;SDS011;25121;51.090;17.038;2023-04-09T05:47:33;81.68;;;48.97;;
39404;SDS011;25121;51.090;17.038;2023-04-09T05:49:10;83.22;;;49.15;;
39404;SDS011;25121;51.090;17.038;2023-04-09T05:50:37;81.20;;;48.30;;
39404;SDS011;25121;51.090;17.038;2023-04-09T05:52:13;78.43;;;47.85;;
39404;SDS011;25121;51.090;17.038;2023-04-09T05:53:36;87.78;;;50.20;;
39404;SDS011;25121;51.090;17.038;2023-04-09T05:54:58;89.85;;;52.53;;
39404;SDS011;25121;51.090;17.038;2023-04-09T05:56:34;84.55;;;49.45;;
39404;SDS011;25121;51.090;17.038;2023-04-09T05:58:03;87.57;;;51.58;;
39404;SDS011;25121;51.090;17.038;2023-04-09T05:59:32;84.45;;;52.17;;
39404;SDS011;25121;51.090;17.038;2023-04-09T06:01:07;81.53;;;48.63;;
39404;SDS011;25121;51.090;17.038;2023-04-09T06:02:30;90.30;;;52.17;;
39404;SDS011;25121;51.090;17.038;2023-04-09T06:03:55;91.32;;;52.58;;
39404;SDS011;25121;51.090;17.038;2023-04-09T06:05:22;92.75;;;53.67;;
39404;SDS011;25121;51.090;17.038;2023-04-09T06:06:50;98.10;;;54.08;;
39404;SDS011;25121;51.090;17.038;2023-04-09T06:08:27;88.07;;;51.55;;
39404;SDS011;25121;51.090;17.038;2023-04-09T06:12:26;92.10;;;52.10;;
39404;SDS011;25121;51.090;17.038;2023-04-09T06:18:36;94.80;;;52.75;;
39404;SDS011;25121;51.090;17.038;2023-04-09T06:20:03;86.80;;;50.85;;
39404;SDS011;25121;51.090;17.038;2023-04-09T06:21:30;90.88;;;52.75;;
39404;SDS011;25121;51.090;17.038;2023-04-09T06:25:30;93.82;;;52.30;;
39404;SDS011;25121;51.090;17.038;2023-04-09T06:27:08;94.68;;;54.90;;
39404;SDS011;25121;51.090;17.038;2023-04-09T06:28:35;92.65;;;54.20;;
39404;SDS011;25121;51.090;17.038;2023-04-09T06:32:15;85.05;;;51.30;;
39404;SDS011;25121;51.090;17.038;2023-04-09T06:37:46;100.72;;;52.05;;
39404;SDS011;25121;51.090;17.038;2023-04-09T06:39:09;100.95;;;55.80;;
39404;SDS011;25121;51.090;17.038;2023-04-09T06:40:33;100.28;;;56.45;;
39404;SDS011;25121;51.090;17.038;2023-04-09T06:42:02;92.03;;;54.40;;
39404;SDS011;25121;51.090;17.038;2023-04-09T06:43:41;93.60;;;53.03;;
39404;SDS011;25121;51.090;17.038;2023-04-09T06:45:03;101.90;;;57.92;;
39404;SDS011;25121;51.090;17.038;2023-04-09T06:46:28;91.20;;;52.15;;
39404;SDS011;25121;51.090;17.038;2023-04-09T06:49:48;89.72;;;52.45;;
39404;SDS011;25121;51.090;17.038;2023-04-09T06:51:16;91.22;;;54.67;;
39404;SDS011;25121;51.090;17.038;2023-04-09T06:52:40;91.65;;;51.92;;
39404;SDS011;25121;51.090;17.038;2023-04-09T06:54:02;91.80;;;53.08;;
39404;SDS011;25121;51.090;17.038;2023-04-09T06:55:26;97.82;;;56.53;;
39404;SDS011;25121;51.090;17.038;2023-04-09T06:57:50;93.63;;;52.97;;
39404;SDS011;25121;51.090;17.038;2023-04-09T06:59:16;99.53;;;57.08;;
39404;SDS011;25121;51.090;17.038;2023-04-09T07:00:44;90.95;;;54.05;;
39404;SDS011;25121;51.090;17.038;2023-04-09T07:02:09;86.85;;;53.50;;
39404;SDS011;25121;51.090;17.038;2023-04-09T07:03:35;85.15;;;50.42;;
39404;SDS011;25121;51.090;17.038;2023-04-09T07:06:05;82.65;;;48.90;;
39404;SDS011;25121;51.090;17.038;2023-04-09T07:07:02;87.88;;;51.03;;
39404;SDS011;25121;51.090;17.038;2023-04-09T07:08:26;94.22;;;54.13;;
39404;SDS011;25121;51.090;17.038;2023-04-09T07:09:58;90.90;;;53.15;;
39404;SDS011;25121;51.090;17.038;2023-04-09T07:11:21;92.22;;;52.70;;
39404;SDS011;25121;51.090;17.038;2023-04-09T07:12:43;91.65;;;51.22;;
39404;SDS011;25121;51.090;17.038;2023-04-09T07:14:05;98.97;;;54.00;;
39404;SDS011;25121;51.090;17.038;2023-04-09T07:15:31;95.88;;;55.83;;
39404;SDS011;25121;51.090;17.038;2023-04-09T07:18:33;91.72;;;52.63;;
39404;SDS011;25121;51.090;17.038;2023-04-09T07:19:58;95.75;;;55.83;;
39404;SDS011;25121;51.090;17.038;2023-04-09T07:21:20;85.20;;;50.47;;
39404;SDS011;25121;51.090;17.038;2023-04-09T07:22:43;84.50;;;51.03;;
39404;SDS011;25121;51.090;17.038;2023-04-09T07:24:07;92.90;;;53.53;;
39404;SDS011;25121;51.090;17.038;2023-04-09T07:25:29;88.75;;;50.80;;
39404;SDS011;25121;51.090;17.038;2023-04-09T07:26:54;88.20;;;52.53;;
39404;SDS011;25121;51.090;17.038;2023-04-09T07:28:16;86.30;;;52.53;;
39404;SDS011;25121;51.090;17.038;2023-04-09T07:29:42;89.85;;;52.92;;
39404;SDS011;25121;51.090;17.038;2023-04-09T07:31:06;91.90;;;53.20;;
39404;SDS011;25121;51.090;17.038;2023-04-09T07:32:32;84.82;;;50.60;;
39404;SDS011;25121;51.090;17.038;2023-04-09T07:34:02;93.88;;;51.38;;
39404;SDS011;25121;51.090;17.038;2023-04-09T07:35:25;88.55;;;51.70;;
39404;SDS011;25121;51.090;17.038;2023-04-09T07:36:48;89.35;;;52.08;;
39404;SDS011;25121;51.090;17.038;2023-04-09T07:40:39;81.43;;;47.20;;
39404;SDS011;25121;51.090;17.038;2023-04-09T07:45:21;81.85;;;45.90;;
39404;SDS011;25121;51.090;17.038;2023-04-09T07:56:06;81.22;;;46.90;;
39404;SDS011;25121;51.090;17.038;2023-04-09T07:57:29;84.82;;;49.63;;
39404;SDS011;25121;51.090;17.038;2023-04-09T07:58:55;87.28;;;51.30;;
39404;SDS011;25121;51.090;17.038;2023-04-09T08:00:23;78.57;;;46.97;;
39404;SDS011;25121;51.090;17.038;2023-04-09T08:04:10;88.10;;;48.25;;
39404;SDS011;25121;51.090;17.038;2023-04-09T08:05:34;78.90;;;46.30;;
39404;SDS011;25121;51.090;17.038;2023-04-09T08:07:14;83.93;;;49.03;;
39404;SDS011;25121;51.090;17.038;2023-04-09T08:09:31;84.10;;;48.40;;
39404;SDS011;25121;51.090;17.038;2023-04-09T08:17:45;79.53;;;45.30;;
39404;SDS011;25121;51.090;17.038;2023-04-09T08:46:07;78.90;;;45.00;;
39404;SDS011;25121;51.090;17.038;2023-04-09T08:47:38;78.30;;;44.30;;
39404;SDS011;25121;51.090;17.038;2023-04-09T08:49:29;75.15;;;45.13;;
39404;SDS011;25121;51.090;17.038;2023-04-09T08:51:00;78.20;;;48.13;;
39404;SDS011;25121;51.090;17.038;2023-04-09T08:52:44;76.15;;;46.20;;
39404;SDS011;25121;51.090;17.038;2023-04-09T08:54:14;75.40;;;44.78;;
39404;SDS011;25121;51.090;17.038;2023-04-09T08:55:39;73.80;;;45.33;;
39404;SDS011;25121;51.090;17.038;2023-04-09T08:57:06;79.28;;;47.20;;
39404;SDS011;25121;51.090;17.038;2023-04-09T09:00:19;77.28;;;44.67;;
39404;SDS011;25121;51.090;17.038;2023-04-09T09:01:45;71.35;;;44.10;;
39404;SDS011;25121;51.090;17.038;2023-04-09T09:12:48;78.25;;;44.83;;
39404;SDS011;25121;51.090;17.038;2023-04-09T09:14:17;70.55;;;44.13;;
39404;SDS011;25121;51.090;17.038;2023-04-09T09:15:40;71.55;;;44.92;;
39404;SDS011;25121;51.090;17.038;2023-04-09T09:17:03;70.78;;;44.55;;
39404;SDS011;25121;51.090;17.038;2023-04-09T09:20:44;75.63;;;44.72;;
39404;SDS011;25121;51.090;17.038;2023-04-09T09:22:06;72.25;;;44.00;;
39404;SDS011;25121;51.090;17.038;2023-04-09T09:27:43;72.55;;;42.85;;
39404;SDS011;25121;51.090;17.038;2023-04-09T09:29:13;74.10;;;43.03;;
39404;SDS011;25121;51.090;17.038;2023-04-09T09:30:41;74.25;;;44.70;;
39404;SDS011;25121;51.090;17.038;2023-04-09T09:32:05;75.28;;;45.97;;
39404;SDS011;25121;51.090;17.038;2023-04-09T09:33:34;71.95;;;43.40;;
39404;SDS011;25121;51.090;17.038;2023-04-09T09:34:58;72.65;;;44.33;;
39404;SDS011;25121;51.090;17.038;2023-04-09T09:36:53;73.20;;;41.80;;
39404;SDS011;25121;51.090;17.038;2023-04-09T09:40:40;72.53;;;42.63;;
39404;SDS011;25121;51.090;17.038;2023-04-09T09:42:06;71.15;;;43.13;;
39404;SDS011;25121;51.090;17.038;2023-04-09T09:43:38;70.57;;;42.90;;
39404;SDS011;25121;51.090;17.038;2023-04-09T09:45:15;73.82;;;44.22;;
39404;SDS011;25121;51.090;17.038;2023-04-09T09:46:39;72.47;;;45.85;;
39404;SDS011;25121;51.090;17.038;2023-04-09T09:48:13;73.72;;;44.42;;
39404;SDS011;25121;51.090;17.038;2023-04-09T09:49:35;72.80;;;44.50;;
39404;SDS011;25121;51.090;17.038;2023-04-09T09:51:09;66.05;;;42.83;;
39404;SDS011;25121;51.090;17.038;2023-04-09T09:53:53;67.40;;;41.70;;
39404;SDS011;25121;51.090;17.038;2023-04-09T09:55:56;65.13;;;40.90;;
39404;SDS011;25121;51.090;17.038;2023-04-09T09:57:20;62.28;;;40.53;;
39404;SDS011;25121;51.090;17.038;2023-04-09T09:59:01;70.35;;;42.97;;
39404;SDS011;25121;51.090;17.038;2023-04-09T10:00:31;69.43;;;43.95;;
39404;SDS011;25121;51.090;17.038;2023-04-09T10:01:54;70.72;;;43.50;;
39404;SDS011;25121;51.090;17.038;2023-04-09T10:03:27;68.53;;;41.40;;
39404;SDS011;25121;51.090;17.038;2023-04-09T10:06:17;73.40;;;42.85;;
39404;SDS011;25121;51.090;17.038;2023-04-09T10:07:41;69.60;;;43.10;;
39404;SDS011;25121;51.090;17.038;2023-04-09T10:35:12;75.10;;;44.90;;
39404;SDS011;25121;51.090;17.038;2023-04-09T10:38:59;82.88;;;49.10;;
39404;SDS011;25121;51.090;17.038;2023-04-09T10:40:33;84.35;;;50.15;;
39404;SDS011;25121;51.090;17.038;2023-04-09T10:42:38;88.35;;;49.10;;
39404;SDS011;25121;51.090;17.038;2023-04-09T10:44:19;98.07;;;50.78;;
39404;SDS011;25121;51.090;17.038;2023-04-09T10:45:47;91.75;;;50.15;;
39404;SDS011;25121;51.090;17.038;2023-04-09T10:47:29;93.45;;;52.33;;
39404;SDS011;25121;51.090;17.038;2023-04-09T10:49:08;92.28;;;50.22;;
39404;SDS011;25121;51.090;17.038;2023-04-09T10:50:34;85.78;;;49.42;;
39404;SDS011;25121;51.090;17.038;2023-04-09T10:52:02;88.07;;;51.58;;
39404;SDS011;25121;51.090;17.038;2023-04-09T10:54:39;78.07;;;45.05;;
39404;SDS011;25121;51.090;17.038;2023-04-09T10:56:13;103.15;;;53.92;;
39404;SDS011;25121;51.090;17.038;2023-04-09T11:00:49;98.43;;;51.63;;
39404;SDS011;25121;51.090;17.038;2023-04-09T11:11:56;89.45;;;49.33;;
39404;SDS011;25121;51.090;17.038;2023-04-09T12:55:14;85.03;;;47.58;;
39404;SDS011;25121;51.090;17.038;2023-04-09T13:33:08;80.22;;;45.42;;
39404;SDS011;25121;51.090;17.038;2023-04-09T13:44:21;74.88;;;44.60;;
39404;SDS011;25121;51.090;17.038;2023-04-09T14:24:39;77.07;;;45.42;;
39404;SDS011;25121;51.090;17.038;2023-04-09T14:26:02;79.03;;;47.10;;
39404;SDS011;25121;51.090;17.038;2023-04-09T14:27:27;76.93;;;46.38;;
39404;SDS011;25121;51.090;17.038;2023-04-09T14:28:50;77.75;;;47.40;;
39404;SDS011;25121;51.090;17.038;2023-04-09T14:41:12;81.30;;;47.47;;
39404;SDS011;25121;51.090;17.038;2023-04-09T14:44:30;88.60;;;50.50;;
39404;SDS011;25121;51.090;17.038;2023-04-09T14:49:08;76.30;;;45.00;;
39404;SDS011;25121;51.090;17.038;2023-04-09T14:53:01;78.38;;;45.78;;
39404;SDS011;25121;51.090;17.038;2023-04-09T15:01:35;89.05;;;48.53;;
39404;SDS011;25121;51.090;17.038;2023-04-09T15:16:26;99.47;;;52.38;;
39404;SDS011;25121;51.090;17.038;2023-04-09T15:19:17;86.43;;;48.20;;
39404;SDS011;25121;51.090;17.038;2023-04-09T15:20:43;87.72;;;49.38;;
39404;SDS011;25121;51.090;17.038;2023-04-09T15:22:07;88.00;;;49.78;;
39404;SDS011;25121;51.090;17.038;2023-04-09T15:24:52;90.70;;;49.00;;
39404;SDS011;25121;51.090;17.038;2023-04-09T15:27:13;92.13;;;50.33;;
39404;SDS011;25121;51.090;17.038;2023-04-09T15:28:36;94.47;;;51.95;;
39404;SDS011;25121;51.090;17.038;2023-04-09T15:29:58;91.78;;;52.70;;
39404;SDS011;25121;51.090;17.038;2023-04-09T15:31:21;103.05;;;55.30;;
39404;SDS011;25121;51.090;17.038;2023-04-09T15:32:46;99.93;;;55.42;;
39404;SDS011;25121;51.090;17.038;2023-04-09T15:34:52;100.20;;;54.03;;
39404;SDS011;25121;51.090;17.038;2023-04-09T15:36:15;93.75;;;52.72;;
39404;SDS011;25121;51.090;17.038;2023-04-09T15:37:42;92.13;;;53.10;;
39404;SDS011;25121;51.090;17.038;2023-04-09T15:40:18;92.80;;;51.65;;
39404;SDS011;25121;51.090;17.038;2023-04-09T15:41:40;100.72;;;54.20;;
39404;SDS011;25121;51.090;17.038;2023-04-09T15:43:02;105.30;;;56.92;;
39404;SDS011;25121;51.090;17.038;2023-04-09T15:44:25;99.18;;;55.75;;
39404;SDS011;25121;51.090;17.038;2023-04-09T15:45:48;100.75;;;57.58;;
39404;SDS011;25121;51.090;17.038;2023-04-09T15:47:10;100.68;;;54.53;;
39404;SDS011;25121;51.090;17.038;2023-04-09T15:48:33;95.47;;;54.45;;
39404;SDS011;25121;51.090;17.038;2023-04-09T15:50:00;91.30;;;51.35;;
39404;SDS011;25121;51.090;17.038;2023-04-09T15:51:27;91.03;;;50.63;;
39404;SDS011;25121;51.090;17.038;2023-04-09T15:52:50;79.38;;;47.88;;
39404;SDS011;25121;51.090;17.038;2023-04-09T15:54:15;88.40;;;49.35;;
39404;SDS011;25121;51.090;17.038;2023-04-09T15:55:38;86.20;;;49.08;;
39404;SDS011;25121;51.090;17.038;2023-04-09T15:57:04;88.43;;;49.20;;
39404;SDS011;25121;51.090;17.038;2023-04-09T15:58:25;90.55;;;49.97;;
39404;SDS011;25121;51.090;17.038;2023-04-09T15:59:48;85.13;;;48.15;;
39404;SDS011;25121;51.090;17.038;2023-04-09T16:03:14;90.18;;;49.53;;
39404;SDS011;25121;51.090;17.038;2023-04-09T16:04:40;89.30;;;50.10;;
39404;SDS011;25121;51.090;17.038;2023-04-09T16:06:05;90.90;;;52.47;;
39404;SDS011;25121;51.090;17.038;2023-04-09T16:07:28;93.85;;;52.53;;
39404;SDS011;25121;51.090;17.038;2023-04-09T16:09:00;89.43;;;51.47;;
39404;SDS011;25121;51.090;17.038;2023-04-09T16:10:41;86.38;;;50.25;;
39404;SDS011;25121;51.090;17.038;2023-04-09T16:12:15;92.72;;;51.60;;
39404;SDS011;25121;51.090;17.038;2023-04-09T16:13:38;87.00;;;50.28;;
39404;SDS011;25121;51.090;17.038;2023-04-09T16:15:01;94.10;;;52.33;;
39404;SDS011;25121;51.090;17.038;2023-04-09T16:16:24;89.25;;;51.78;;
39404;SDS011;25121;51.090;17.038;2023-04-09T16:17:49;89.57;;;51.60;;
39404;SDS011;25121;51.090;17.038;2023-04-09T16:19:14;94.15;;;53.08;;
39404;SDS011;25121;51.090;17.038;2023-04-09T16:20:37;96.35;;;54.97;;
39404;SDS011;25121;51.090;17.038;2023-04-09T16:22:03;106.78;;;59.17;;
39404;SDS011;25121;51.090;17.038;2023-04-09T16:23:26;89.63;;;50.97;;
39404;SDS011;25121;51.090;17.038;2023-04-09T16:24:53;98.65;;;56.20;;
39404;SDS011;25121;51.090;17.038;2023-04-09T16:28:17;91.00;;;52.67;;
39404;SDS011;25121;51.090;17.038;2023-04-09T16:29:41;95.10;;;53.88;;
39404;SDS011;25121;51.090;17.038;2023-04-09T16:31:06;100.07;;;55.22;;
39404;SDS011;25121;51.090;17.038;2023-04-09T16:32:42;96.38;;;54.63;;
39404;SDS011;25121;51.090;17.038;2023-04-09T16:37:33;90.78;;;49.92;;
39404;SDS011;25121;51.090;17.038;2023-04-09T16:39:00;84.40;;;47.63;;
39404;SDS011;25121;51.090;17.038;2023-04-09T16:47:56;84.38;;;47.20;;
39404;SDS011;25121;51.090;17.038;2023-04-09T16:51:05;91.60;;;47.13;;
39404;SDS011;25121;51.090;17.038;2023-04-09T17:52:19;92.32;;;50.15;;
39404;SDS011;25121;51.090;17.038;2023-04-09T17:54:04;95.25;;;50.97;;
39404;SDS011;25121;51.090;17.038;2023-04-09T17:55:38;94.97;;;51.63;;
39404;SDS011;25121;51.090;17.038;2023-04-09T17:57:14;88.97;;;50.33;;
39404;SDS011;25121;51.090;17.038;2023-04-09T17:58:36;95.85;;;51.13;;
39404;SDS011;25121;51.090;17.038;2023-04-09T18:00:01;93.38;;;51.53;;
39404;SDS011;25121;51.090;17.038;2023-04-09T18:01:27;85.40;;;48.53;;
39404;SDS011;25121;51.090;17.038;2023-04-09T18:02:55;91.97;;;51.45;;
39404;SDS011;25121;51.090;17.038;2023-04-09T18:07:11;88.78;;;49.05;;
39404;SDS011;25121;51.090;17.038;2023-04-09T18:08:45;92.82;;;49.38;;
39404;SDS011;25121;51.090;17.038;2023-04-09T18:10:13;88.28;;;50.40;;
39404;SDS011;25121;51.090;17.038;2023-04-09T18:14:53;78.45;;;44.38;;
39404;SDS011;25121;51.090;17.038;2023-04-09T18:22:28;82.55;;;46.22;;
39404;SDS011;25121;51.090;17.038;2023-04-09T18:27:08;77.95;;;44.58;;
39404;SDS011;25121;51.090;17.038;2023-04-09T18:28:32;91.68;;;48.00;;
39404;SDS011;25121;51.090;17.038;2023-04-09T18:35:33;77.78;;;44.30;;
39404;SDS011;25121;51.090;17.038;2023-04-09T18:37:06;84.28;;;48.80;;
39404;SDS011;25121;51.090;17.038;2023-04-09T18:45:31;85.03;;;47.70;;
39404;SDS011;25121;51.090;17.038;2023-04-09T18:50:20;87.43;;;51.37;;
39404;SDS011;25121;51.090;17.038;2023-04-09T18:52:46;91.97;;;50.23;;
39404;SDS011;25121;51.090;17.038;2023-04-09T18:55:04;87.90;;;48.83;;
39404;SDS011;25121;51.090;17.038;2023-04-09T18:56:53;93.88;;;51.25;;
39404;SDS011;25121;51.090;17.038;2023-04-09T18:58:21;93.43;;;52.75;;
39404;SDS011;25121;51.090;17.038;2023-04-09T19:02:43;91.68;;;51.28;;
39404;SDS011;25121;51.090;17.038;2023-04-09T19:04:15;92.43;;;52.13;;
39404;SDS011;25121;51.090;17.038;2023-04-09T19:16:16;91.47;;;46.88;;
39404;SDS011;25121;51.090;17.038;2023-04-09T19:25:10;89.50;;;48.20;;
39404;SDS011;25121;51.090;17.038;2023-04-09T19:52:46;84.97;;;48.30;;
39404;SDS011;25121;51.090;17.038;2023-04-09T19:54:12;88.15;;;47.17;;
39404;SDS011;25121;51.090;17.038;2023-04-09T20:01:03;85.22;;;46.78;;
39404;SDS011;25121;51.090;17.038;2023-04-09T20:02:24;84.60;;;48.45;;
39404;SDS011;25121;51.090;17.038;2023-04-09T20:04:04;92.95;;;48.78;;
39404;SDS011;25121;51.090;17.038;2023-04-09T20:49:01;88.15;;;47.88;;
39404;SDS011;25121;51.090;17.038;2023-04-09T21:05:29;92.45;;;53.15;;
39404;SDS011;25121;51.090;17.038;2023-04-09T21:07:32;97.30;;;51.65;;
39404;SDS011;25121;51.090;17.038;2023-04-09T21:13:49;94.53;;;52.90;;
39404;SDS011;25121;51.090;17.038;2023-04-09T21:15:48;90.97;;;51.40;;
39404;SDS011;25121;51.090;17.038;2023-04-09T21:17:58;89.30;;;50.90;;
39404;SDS011;25121;51.090;17.038;2023-04-09T21:23:32;96.18;;;51.17;;
39404;SDS011;25121;51.090;17.038;2023-04-09T21:30:47;101.30;;;52.70;;
39404;SDS011;25121;51.090;17.038;2023-04-09T21:37:12;95.72;;;51.00;;
39404;SDS011;25121;51.090;17.038;2023-04-09T21:38:55;101.88;;;55.75;;
39404;SDS011;25121;51.090;17.038;2023-04-09T21:41:48;93.72;;;51.28;;
39404;SDS011;25121;51.090;17.038;2023-04-09T21:43:27;95.57;;;52.50;;
39404;SDS011;25121;51.090;17.038;2023-04-09T21:44:53;90.70;;;52.63;;
39404;SDS011;25121;51.090;17.038;2023-04-09T21:46:24;98.63;;;55.03;;
39404;SDS011;25121;51.090;17.038;2023-04-09T21:48:06;98.57;;;52.83;;
39404;SDS011;25121;51.090;17.038;2023-04-09T21:49:56;95.80;;;52.63;;
39404;SDS011;25121;51.090;17.038;2023-04-09T21:51:30;97.20;;;55.42;;
39404;SDS011;25121;51.090;17.038;2023-04-09T21:52:57;95.18;;;54.28;;
39404;SDS011;25121;51.090;17.038;2023-04-09T21:54:29;102.95;;;55.42;;
39404;SDS011;25121;51.090;17.038;2023-04-09T21:55:55;101.30;;;56.17;;
39404;SDS011;25121;51.090;17.038;2023-04-09T21:59:07;100.28;;;54.80;;
39404;SDS011;25121;51.090;17.038;2023-04-09T22:01:07;98.30;;;53.78;;
39404;SDS011;25121;51.090;17.038;2023-04-09T22:02:47;98.30;;;54.80;;
39404;SDS011;25121;51.090;17.038;2023-04-09T22:04:13;98.80;;;54.78;;
39404;SDS011;25121;51.090;17.038;2023-04-09T22:05:36;93.38;;;54.47;;
39404;SDS011;25121;51.090;17.038;2023-04-09T22:10:10;102.70;;;53.80;;
39404;SDS011;25121;51.090;17.038;2023-04-09T22:11:48;97.70;;;54.80;;